createdAt,value
2023-03-22T00:00:19.419Z,5.97
2023-03-22T00:02:46.576Z,6.30
2023-03-22T00:05:13.856Z,5.47
2023-03-22T00:07:41.036Z,6.10
2023-03-22T00:10:08.506Z,5.55
2023-03-22T00:12:35.664Z,5.72
2023-03-22T00:15:02.811Z,5.47
2023-03-22T00:17:30.777Z,5.10
2023-03-22T00:19:58.445Z,5.28
2023-03-22T00:22:26.128Z,5.40
2023-03-22T00:24:53.344Z,5.28
2023-03-22T00:27:20.485Z,5.35
2023-03-22T00:29:47.641Z,6.10
2023-03-22T00:32:14.818Z,6.03
2023-03-22T00:34:41.986Z,5.60
2023-03-22T00:37:09.165Z,5.60
2023-03-22T00:39:36.270Z,5.07
2023-03-22T00:42:05.000Z,5.45
2023-03-22T00:44:32.149Z,5.38
2023-03-22T00:46:59.462Z,5.53
2023-03-22T00:49:27.229Z,5.60
2023-03-22T00:51:54.905Z,5.47
2023-03-22T00:54:22.014Z,5.72
2023-03-22T00:56:51.082Z,5.43
2023-03-22T00:59:18.212Z,5.35
2023-03-22T01:01:45.367Z,5.43
2023-03-22T01:04:18.042Z,5.95
2023-03-22T01:06:47.205Z,5.10
2023-03-22T01:09:15.173Z,5.00
2023-03-22T01:11:43.649Z,5.28
2023-03-22T01:14:13.744Z,5.57
2023-03-22T01:16:41.078Z,4.72
2023-03-22T01:19:08.789Z,5.47
2023-03-22T01:21:35.983Z,5.32
2023-03-22T01:24:03.112Z,5.57
2023-03-22T01:26:30.271Z,5.47
2023-03-22T01:28:57.383Z,5.47
2023-03-22T01:31:24.666Z,5.47
2023-03-22T01:33:51.883Z,5.30
2023-03-22T01:36:19.005Z,5.65
2023-03-22T01:38:46.142Z,5.75
2023-03-22T01:41:13.317Z,5.60
2023-03-22T01:43:40.582Z,5.20
2023-03-22T01:46:07.838Z,5.80
2023-03-22T01:48:35.056Z,5.97
2023-03-22T01:51:07.212Z,5.45
2023-03-22T01:53:36.637Z,5.82
2023-03-22T01:56:04.156Z,5.40
2023-03-22T01:58:31.864Z,5.70
2023-03-22T02:00:59.460Z,5.35
2023-03-22T02:03:32.954Z,5.72
2023-03-22T02:06:00.705Z,5.30
2023-03-22T02:08:28.589Z,4.93
2023-03-22T02:10:55.766Z,5.20
2023-03-22T02:13:27.778Z,5.05
2023-03-22T02:16:00.983Z,5.35
2023-03-22T02:18:57.735Z,6.00
2023-03-22T02:21:24.898Z,4.40
2023-03-22T02:23:58.284Z,5.03
2023-03-22T02:26:31.256Z,4.65
2023-03-22T02:29:09.091Z,4.80
2023-03-22T02:31:55.432Z,5.20
2023-03-22T02:34:41.515Z,4.43
2023-03-22T02:37:29.629Z,4.80
2023-03-22T02:40:00.529Z,4.75
2023-03-22T02:42:36.793Z,4.55
2023-03-22T02:45:09.833Z,5.47
2023-03-22T02:47:38.536Z,5.30
2023-03-22T02:50:12.150Z,4.35
2023-03-22T02:52:39.467Z,4.88
2023-03-22T02:55:10.898Z,4.97
2023-03-22T02:57:38.086Z,4.50
2023-03-22T03:00:15.981Z,5.10
2023-03-22T03:02:45.375Z,5.18
2023-03-22T03:05:13.687Z,4.68
2023-03-22T03:07:42.383Z,4.45
2023-03-22T03:10:10.180Z,4.40
2023-03-22T03:12:37.329Z,4.40
2023-03-22T03:15:13.694Z,4.68
2023-03-22T03:17:53.006Z,4.40
2023-03-22T03:20:21.871Z,4.80
2023-03-22T03:23:08.393Z,4.40
2023-03-22T03:25:38.364Z,4.63
2023-03-22T03:28:11.442Z,4.80
2023-03-22T03:30:43.289Z,4.70
2023-03-22T03:33:14.972Z,4.82
2023-03-22T03:35:45.765Z,4.45
2023-03-22T03:38:15.689Z,4.70
2023-03-22T03:40:45.599Z,4.80
2023-03-22T03:43:13.155Z,4.30
2023-03-22T03:45:40.746Z,4.60
2023-03-22T03:48:15.361Z,4.53
2023-03-22T03:50:42.869Z,4.50
2023-03-22T03:53:10.069Z,4.30
2023-03-22T03:55:37.676Z,5.32
2023-03-22T03:58:04.840Z,5.22
2023-03-22T04:00:32.061Z,5.10
2023-03-22T04:02:59.243Z,5.50
2023-03-22T04:05:26.432Z,5.22
2023-03-22T04:07:53.540Z,5.03
2023-03-22T04:10:20.814Z,5.13
2023-03-22T04:12:47.940Z,4.50
2023-03-22T04:15:15.316Z,4.40
2023-03-22T04:17:42.728Z,4.40
2023-03-22T04:20:11.037Z,5.18
2023-03-22T04:22:38.771Z,4.82
2023-03-22T04:25:06.724Z,4.53
2023-03-22T04:27:33.847Z,4.40
2023-03-22T04:30:01.042Z,4.75
2023-03-22T04:32:28.217Z,5.20
2023-03-22T04:34:55.414Z,4.93
2023-03-22T04:37:24.556Z,4.68
2023-03-22T04:39:51.764Z,4.38
2023-03-22T04:42:18.907Z,4.50
2023-03-22T04:44:46.064Z,4.57
2023-03-22T04:47:13.210Z,4.00
2023-03-22T04:49:40.871Z,3.90
2023-03-22T04:52:08.100Z,4.13
2023-03-22T04:54:35.317Z,4.30
2023-03-22T04:57:02.499Z,3.80
2023-03-22T04:59:29.649Z,3.75
2023-03-22T05:01:56.922Z,4.13
2023-03-22T05:04:24.113Z,4.30
2023-03-22T05:06:51.309Z,3.22
2023-03-22T05:09:18.462Z,3.30
2023-03-22T05:11:45.688Z,4.00
2023-03-22T05:14:12.844Z,3.85
2023-03-22T05:16:43.015Z,3.15
2023-03-22T05:19:16.928Z,3.50
2023-03-22T05:21:44.194Z,3.40
2023-03-22T05:24:11.843Z,3.38
2023-03-22T05:26:42.319Z,2.97
2023-03-22T05:29:11.051Z,3.28
2023-03-22T05:31:38.350Z,3.38
2023-03-22T05:34:06.384Z,3.38
2023-03-22T05:36:36.539Z,3.30
2023-03-22T05:39:03.998Z,3.40
2023-03-22T05:41:36.550Z,3.33
2023-03-22T05:44:04.136Z,3.35
2023-03-22T05:46:31.311Z,2.95
2023-03-22T05:48:58.490Z,3.10
2023-03-22T05:51:26.023Z,3.35
2023-03-22T05:53:56.221Z,3.05
2023-03-22T05:56:24.517Z,3.50
2023-03-22T05:58:52.125Z,3.30
2023-03-22T06:01:21.399Z,3.15
2023-03-22T06:03:48.971Z,3.67
2023-03-22T06:06:16.131Z,2.90
2023-03-22T06:08:43.258Z,3.38
2023-03-22T06:11:10.692Z,3.50
2023-03-22T06:13:38.111Z,3.78
2023-03-22T06:16:06.194Z,3.58
2023-03-22T06:18:33.657Z,3.90
2023-03-22T06:21:01.032Z,3.47
2023-03-22T06:23:28.356Z,3.28
2023-03-22T06:25:55.501Z,2.80
2023-03-22T06:28:22.700Z,3.05
2023-03-22T06:30:49.946Z,2.60
2023-03-22T06:33:17.218Z,2.75
2023-03-22T06:35:44.463Z,2.70
2023-03-22T06:38:11.596Z,3.00
2023-03-22T06:40:39.179Z,3.17
2023-03-22T06:43:07.424Z,3.83
2023-03-22T06:45:35.944Z,2.38
2023-03-22T06:48:03.161Z,2.70
2023-03-22T06:50:30.398Z,2.80
2023-03-22T06:52:57.705Z,2.60
2023-03-22T06:55:24.919Z,2.55
2023-03-22T06:57:52.074Z,2.45
2023-03-22T07:00:19.513Z,1.95
2023-03-22T07:02:46.731Z,2.13
2023-03-22T07:05:13.895Z,2.00
2023-03-22T07:07:41.213Z,1.80
2023-03-22T07:10:08.624Z,2.60
2023-03-22T07:12:36.030Z,2.20
2023-03-22T07:15:03.508Z,1.90
2023-03-22T07:17:30.857Z,2.20
2023-03-22T07:19:58.041Z,2.17
2023-03-22T07:22:25.809Z,2.30
2023-03-22T07:24:57.207Z,2.30
2023-03-22T07:27:25.899Z,2.20
2023-03-22T07:29:53.170Z,1.80
2023-03-22T07:32:20.577Z,2.05
2023-03-22T07:34:47.831Z,1.73
2023-03-22T07:37:15.040Z,1.80
2023-03-22T07:39:42.253Z,1.90
2023-03-22T07:42:09.588Z,1.90
2023-03-22T07:44:36.770Z,2.00
2023-03-22T07:47:03.951Z,2.00
2023-03-22T07:49:31.577Z,2.17
2023-03-22T07:51:58.741Z,2.10
2023-03-22T07:54:33.336Z,2.70
2023-03-22T07:57:01.729Z,2.60
2023-03-22T07:59:29.005Z,2.63
2023-03-22T08:01:56.179Z,2.53
2023-03-22T08:04:23.782Z,2.40
2023-03-22T08:06:51.382Z,2.50
2023-03-22T08:09:19.587Z,2.50
2023-03-22T08:11:46.737Z,2.60
2023-03-22T08:14:13.910Z,2.45
2023-03-22T08:16:43.365Z,2.58
2023-03-22T08:19:11.099Z,2.70
2023-03-22T08:21:38.520Z,2.85
2023-03-22T08:24:06.767Z,2.63
2023-03-22T08:26:33.955Z,2.30
2023-03-22T08:29:01.092Z,2.72
2023-03-22T08:31:28.345Z,2.42
2023-03-22T08:33:55.643Z,2.30
2023-03-22T08:36:23.903Z,2.78
2023-03-22T08:38:51.036Z,3.42
2023-03-22T08:41:18.206Z,3.13
2023-03-22T08:43:45.772Z,3.65
2023-03-22T08:46:13.025Z,3.35
2023-03-22T08:48:41.800Z,4.05
2023-03-22T08:51:09.243Z,4.38
2023-03-22T08:53:36.505Z,4.90
2023-03-22T08:56:04.098Z,4.82
2023-03-22T08:58:31.321Z,4.70
2023-03-22T09:00:58.694Z,4.55
2023-03-22T09:03:25.952Z,5.20
2023-03-22T09:05:53.538Z,4.63
2023-03-22T09:08:20.980Z,4.80
2023-03-22T09:10:51.617Z,4.70
2023-03-22T09:13:19.093Z,4.47
2023-03-22T09:15:46.419Z,4.10
2023-03-22T09:18:15.077Z,4.13
2023-03-22T09:20:42.708Z,4.47
2023-03-22T09:23:11.093Z,4.07
2023-03-22T09:25:38.507Z,4.28
2023-03-22T09:28:06.292Z,4.18
2023-03-22T09:30:33.528Z,3.83
2023-03-22T09:33:00.651Z,3.60
2023-03-22T09:35:27.823Z,3.72
2023-03-22T09:37:56.080Z,3.60
2023-03-22T09:40:26.275Z,3.45
2023-03-22T09:42:55.518Z,3.35
2023-03-22T09:45:32.894Z,3.67
2023-03-22T09:48:00.624Z,3.60
2023-03-22T09:50:31.589Z,3.60
2023-03-22T09:52:59.230Z,3.55
2023-03-22T09:55:34.172Z,3.42
2023-03-22T09:58:01.305Z,3.05
2023-03-22T10:00:54.756Z,2.53
2023-03-22T10:03:28.578Z,3.50
2023-03-22T10:06:14.444Z,3.22
2023-03-22T10:08:47.731Z,3.00
2023-03-22T10:11:19.773Z,3.20
2023-03-22T10:14:05.803Z,3.22
2023-03-22T10:16:35.490Z,2.80
2023-03-22T10:19:05.970Z,3.15
2023-03-22T10:21:34.023Z,2.72
2023-03-22T10:24:07.415Z,3.30
2023-03-22T10:26:37.408Z,2.70
2023-03-22T10:29:07.534Z,2.90
2023-03-22T10:31:35.117Z,3.05
2023-03-22T10:34:07.321Z,2.90
2023-03-22T10:36:35.737Z,2.88
2023-03-22T10:39:10.795Z,3.42
2023-03-22T10:41:38.447Z,2.97
2023-03-22T10:44:06.478Z,2.80
2023-03-22T10:46:36.363Z,2.80
2023-03-22T10:49:04.567Z,2.90
2023-03-22T10:51:35.340Z,2.65
2023-03-22T10:54:03.369Z,2.65
2023-03-22T10:56:30.642Z,2.65
2023-03-22T10:58:57.802Z,3.35
2023-03-22T11:01:46.068Z,2.75
2023-03-22T11:04:14.561Z,2.92
2023-03-22T11:06:49.475Z,2.20
2023-03-22T11:09:18.146Z,2.65
2023-03-22T11:11:59.246Z,2.47
2023-03-22T11:14:29.738Z,1.40
2023-03-22T11:16:58.961Z,1.60
2023-03-22T11:19:32.755Z,1.90
2023-03-22T11:22:00.725Z,1.92
2023-03-22T11:24:28.630Z,1.80
2023-03-22T11:27:03.156Z,1.90
2023-03-22T11:29:39.512Z,2.03
2023-03-22T11:32:20.684Z,1.88
2023-03-22T11:34:48.027Z,1.90
2023-03-22T11:37:18.566Z,1.70
2023-03-22T11:39:49.837Z,1.85
2023-03-22T11:42:19.640Z,2.50
2023-03-22T11:44:46.931Z,1.80
2023-03-22T11:47:14.437Z,2.15
2023-03-22T11:49:51.780Z,1.63
2023-03-22T11:52:24.285Z,2.15
2023-03-22T11:54:51.880Z,1.88
2023-03-22T11:57:29.601Z,2.00
2023-03-22T12:00:23.027Z,1.90
2023-03-22T12:03:05.535Z,2.00
2023-03-22T12:05:34.074Z,1.60
2023-03-22T12:08:04.355Z,2.47
2023-03-22T12:10:39.511Z,1.70
2023-03-22T12:13:10.741Z,1.80
2023-03-22T12:15:41.257Z,1.90
2023-03-22T12:18:15.333Z,1.85
2023-03-22T12:20:44.775Z,2.40
2023-03-22T12:23:19.737Z,1.90
2023-03-22T12:26:02.184Z,1.90
2023-03-22T12:28:33.848Z,2.72
2023-03-22T12:31:01.587Z,2.20
2023-03-22T12:33:31.624Z,2.00
2023-03-22T12:36:00.626Z,2.10
2023-03-22T12:38:37.095Z,2.03
2023-03-22T12:41:07.685Z,1.83
2023-03-22T12:43:46.870Z,2.42
2023-03-22T12:46:18.440Z,1.70
2023-03-22T12:48:54.739Z,1.85
2023-03-22T12:51:21.979Z,1.90
2023-03-22T12:53:53.521Z,1.77
2023-03-22T12:56:33.824Z,1.40
2023-03-22T12:59:04.448Z,1.92
2023-03-22T13:01:35.624Z,2.28
2023-03-22T13:04:22.784Z,1.80
2023-03-22T13:06:53.580Z,1.70
2023-03-22T13:09:21.730Z,1.75
2023-03-22T13:11:51.730Z,1.60
2023-03-22T13:14:39.137Z,1.35
2023-03-22T13:17:07.721Z,1.70
2023-03-22T13:19:36.907Z,1.55
2023-03-22T13:22:18.428Z,1.25
2023-03-22T13:25:07.332Z,1.17
2023-03-22T13:27:39.455Z,1.45
2023-03-22T13:30:14.692Z,1.10
2023-03-22T13:32:46.183Z,1.23
2023-03-22T13:35:23.575Z,1.50
2023-03-22T13:37:51.947Z,1.67
2023-03-22T13:40:28.056Z,1.92
2023-03-22T13:42:55.259Z,1.50
2023-03-22T13:45:34.082Z,1.40
2023-03-22T13:48:12.530Z,1.50
2023-03-22T13:50:40.379Z,1.80
2023-03-22T13:53:15.750Z,1.60
2023-03-22T13:55:52.104Z,1.55
2023-03-22T13:58:36.176Z,1.52
2023-03-22T14:01:07.457Z,1.25
2023-03-22T14:03:38.990Z,2.22
2023-03-22T14:06:09.966Z,1.40
2023-03-22T14:08:37.913Z,1.23
2023-03-22T14:11:15.138Z,1.40
2023-03-22T14:13:47.944Z,1.40
2023-03-22T14:16:20.737Z,1.52
2023-03-22T14:18:49.261Z,1.65
2023-03-22T14:21:18.770Z,1.38
